Time;durP1;ratioP1;P1;durP2;ratioP2;P2;SDS_P1;SDS_P2;PMS_P1;PMS_P2;Temp;Humidity;BMP_temperature;BMP_pressure;BME280_temperature;BME280_humidity;BME280_pressure;Samples;Min_cycle;Max_cycle;Signal;HPM_P1;HPM_P2
2022/02/19 00:00:15;;;;;;;49.72;20.02;;;5.40;99.90;;;;;;5084262;28;20438;-80
2022/02/19 00:02:41;;;;;;;;;;;5.20;99.90;;;;;;5082929;28;20021;-80
2022/02/19 00:05:07;;;;;;;58.15;21.17;;;5.20;99.90;;;;;;5084201;28;19999;-80
2022/02/19 00:07:33;;;;;;;63.70;19.92;;;5.10;99.90;;;;;;5082931;28;20039;-80
2022/02/19 00:09:59;;;;;;;54.08;18.23;;;5.00;99.90;;;;;;5083596;28;20020;-81
2022/02/19 00:12:25;;;;;;;37.05;13.77;;;4.90;99.90;;;;;;5082960;28;20020;-80
2022/02/19 00:14:52;;;;;;;;;;;4.90;99.90;;;;;;5079346;28;20033;-79
2022/02/19 00:17:20;;;;;;;36.28;12.13;;;4.90;99.90;;;;;;5077508;28;19904;-79
2022/02/19 00:19:45;;;;;;;28.58;10.10;;;5.00;99.90;;;;;;5077363;28;20032;-79
2022/02/19 00:22:11;;;;;;;29.65;10.95;;;4.90;99.90;;;;;;5076257;28;20056;-80
2022/02/19 00:24:37;;;;;;;;;;;4.90;99.90;;;;;;5078783;28;20698;-80
2022/02/19 00:27:02;;;;;;;33.83;12.93;;;4.90;99.90;;;;;;5078483;28;19957;-80
2022/02/19 00:29:28;;;;;;;36.20;11.80;;;4.90;99.90;;;;;;5077786;28;20031;-79
2022/02/19 00:31:54;;;;;;;31.58;10.23;;;4.90;99.90;;;;;;5075785;28;20071;-79
2022/02/19 00:34:19;;;;;;;20.23;8.00;;;4.90;99.90;;;;;;5077386;28;20021;-78
2022/02/19 00:36:45;;;;;;;;;;;5.00;99.90;;;;;;5076882;28;20033;-80
2022/02/19 00:39:12;;;;;;;25.85;7.15;;;5.00;99.90;;;;;;5076555;28;19905;-80
2022/02/19 00:41:38;;;;;;;22.35;7.93;;;5.00;99.90;;;;;;5077340;28;20040;-80
2022/02/19 00:44:07;;;;;;;20.75;6.53;;;5.10;99.90;;;;;;5076829;28;20473;-80
2022/02/19 00:46:34;;;;;;;21.00;6.18;;;5.10;99.90;;;;;;5076566;28;20501;-80
2022/02/19 00:49:01;;;;;;;16.95;5.30;;;5.20;99.90;;;;;;5079069;28;20021;-79
2022/02/19 00:51:28;;;;;;;19.17;5.38;;;5.20;99.90;;;;;;5077493;28;20134;-78
2022/02/19 00:53:54;;;;;;;24.38;5.82;;;5.20;99.90;;;;;;5074123;28;20031;-79
2022/02/19 00:56:19;;;;;;;21.42;4.65;;;5.10;99.90;;;;;;5072670;28;20429;-78
2022/02/19 00:58:45;;;;;;;19.73;5.70;;;5.10;99.90;;;;;;5072594;28;20020;-79
2022/02/19 01:01:11;;;;;;;18.27;4.38;;;5.10;99.90;;;;;;5072919;28;20090;-79
2022/02/19 01:03:36;;;;;;;18.02;5.43;;;5.10;99.90;;;;;;5073601;28;20477;-79
2022/02/19 01:06:02;;;;;;;19.60;4.43;;;5.00;99.90;;;;;;5078985;28;20036;-79
2022/02/19 01:08:28;;;;;;;;;;;4.90;99.90;;;;;;5074876;28;20493;-79
2022/02/19 01:10:53;;;;;;;18.95;4.78;;;4.80;99.90;;;;;;5073299;28;19911;-80
2022/02/19 01:13:19;;;;;;;;;;;4.80;99.90;;;;;;5076810;28;20040;-78
2022/02/19 01:15:44;;;;;;;28.42;7.82;;;4.70;99.90;;;;;;5075920;28;19943;-79
2022/02/19 01:18:10;;;;;;;;;;;4.70;99.90;;;;;;5077501;28;20023;-79
2022/02/19 01:20:40;;;;;;;21.63;4.75;;;4.80;99.90;;;;;;5075670;28;20372;-79
2022/02/19 01:23:05;;;;;;;18.80;6.03;;;4.80;99.90;;;;;;5072699;28;20516;-78
2022/02/19 01:25:31;;;;;;;25.60;6.30;;;4.90;99.90;;;;;;5076586;28;20036;-80
2022/02/19 01:27:56;;;;;;;;;;;4.80;99.90;;;;;;5074243;28;20123;-77
2022/02/19 01:30:22;;;;;;;14.88;5.60;;;4.90;99.90;;;;;;5073057;28;19904;-78
2022/02/19 01:32:48;;;;;;;;;;;5.00;99.90;;;;;;5072715;28;20447;-77
2022/02/19 01:35:13;;;;;;;21.08;7.50;;;4.90;99.90;;;;;;5073006;28;20406;-78
2022/02/19 01:37:39;;;;;;;;;;;4.80;99.90;;;;;;5072603;28;20028;-79
2022/02/19 01:40:05;;;;;;;22.23;6.25;;;4.70;99.90;;;;;;5075568;28;19915;-79
2022/02/19 01:42:31;;;;;;;16.92;5.88;;;4.60;99.90;;;;;;5074450;28;20079;-79
2022/02/19 01:44:57;;;;;;;20.30;6.40;;;4.60;99.90;;;;;;5076468;28;20480;-79
2022/02/19 01:47:23;;;;;;;;;;;4.50;99.90;;;;;;5074522;28;20069;-78
2022/02/19 01:49:48;;;;;;;25.40;7.35;;;4.50;99.90;;;;;;5072985;28;19942;-77
2022/02/19 01:52:15;;;;;;;;;;;4.50;99.90;;;;;;5072861;28;20032;-78
2022/02/19 01:54:42;;;;;;;21.80;7.03;;;4.50;99.90;;;;;;5073954;28;19909;-78
2022/02/19 01:57:08;;;;;;;17.92;5.97;;;4.40;99.90;;;;;;5073085;28;20162;-77
2022/02/19 01:59:39;;;;;;;17.55;5.85;;;4.50;99.90;;;;;;5073323;28;20517;-79
2022/02/19 02:02:05;;;;;;;21.52;5.80;;;4.30;99.90;;;;;;5074543;28;20032;-79
2022/02/19 02:04:31;;;;;;;16.73;6.00;;;4.20;99.90;;;;;;5074599;28;20495;-78
2022/02/19 02:06:57;;;;;;;21.13;5.90;;;4.10;99.90;;;;;;5076487;28;20036;-79
2022/02/19 02:09:23;;;;;;;22.10;8.18;;;4.00;99.90;;;;;;5075326;28;20020;-79
2022/02/19 02:11:49;;;;;;;22.40;7.63;;;4.00;99.90;;;;;;5076422;28;20413;-78
2022/02/19 02:14:15;;;;;;;21.13;6.28;;;3.90;99.90;;;;;;5074622;28;20044;-78
2022/02/19 02:16:42;;;;;;;;;;;3.90;99.90;;;;;;5074830;28;20029;-78
2022/02/19 02:19:09;;;;;;;13.48;4.55;;;3.80;99.90;;;;;;5074238;28;19905;-78
2022/02/19 02:21:36;;;;;;;25.50;5.85;;;3.80;99.90;;;;;;5074214;28;20048;-79
2022/02/19 02:24:02;;;;;;;28.67;6.82;;;3.80;99.90;;;;;;5075002;28;20067;-78
2022/02/19 02:26:28;;;;;;;21.15;4.68;;;3.80;99.90;;;;;;5075556;28;20040;-79
2022/02/19 02:28:54;;;;;;;18.60;4.60;;;3.70;99.90;;;;;;5074050;28;20020;-78
2022/02/19 02:31:21;;;;;;;;;;;3.70;99.90;;;;;;5075416;28;20017;-79
2022/02/19 02:33:48;;;;;;;18.08;4.50;;;3.60;99.90;;;;;;5076528;28;21160;-79
2022/02/19 02:36:14;;;;;;;13.35;4.47;;;3.50;99.90;;;;;;5072949;28;20036;-77
2022/02/19 02:38:40;;;;;;;;;;;3.50;99.90;;;;;;5071325;28;20028;-78
2022/02/19 02:41:06;;;;;;;37.42;13.13;;;3.40;99.90;;;;;;5070834;28;20557;-77
2022/02/19 02:43:32;;;;;;;34.03;11.38;;;3.40;99.90;;;;;;5070846;28;20039;-78
2022/02/19 02:45:57;;;;;;;;;;;3.30;99.90;;;;;;5073741;28;20033;-78
2022/02/19 02:48:23;;;;;;;25.75;6.60;;;3.40;99.90;;;;;;5072655;28;20379;-77
2022/02/19 02:50:50;;;;;;;18.60;5.05;;;3.30;99.90;;;;;;5071554;28;20039;-79
2022/02/19 02:53:16;;;;;;;20.58;6.00;;;3.40;99.90;;;;;;5072054;28;20030;-77
2022/02/19 02:55:42;;;;;;;16.20;5.47;;;3.30;99.90;;;;;;5072653;28;20505;-79
2022/02/19 02:58:08;;;;;;;;;;;3.40;99.90;;;;;;5073969;28;20063;-78
2022/02/19 03:00:34;;;;;;;37.97;13.05;;;3.30;99.90;;;;;;5074753;28;20004;-78
2022/02/19 03:02:59;;;;;;;35.92;12.23;;;3.30;99.90;;;;;;5075665;28;20174;-78
2022/02/19 03:05:25;;;;;;;;;;;3.40;99.90;;;;;;5077246;28;20031;-78
2022/02/19 03:07:51;;;;;;;33.95;13.20;;;3.30;99.90;;;;;;5073344;28;20448;-78
2022/02/19 03:10:18;;;;;;;27.98;10.23;;;3.30;99.90;;;;;;5072495;28;20032;-77
2022/02/19 03:12:45;;;;;;;27.92;9.07;;;3.30;99.90;;;;;;5074734;28;20099;-80
2022/02/19 03:15:15;;;;;;;26.60;9.27;;;3.30;99.90;;;;;;5080492;28;20031;-78
2022/02/19 03:17:41;;;;;;;26.10;9.15;;;3.20;99.90;;;;;;5073414;28;20035;-79
2022/02/19 03:20:08;;;;;;;;;;;3.30;99.90;;;;;;5074622;28;20029;-78
2022/02/19 03:22:36;;;;;;;19.63;7.07;;;3.40;99.90;;;;;;5072872;28;19963;-78
2022/02/19 03:25:02;;;;;;;28.98;8.23;;;3.50;99.90;;;;;;5072912;28;20028;-79
2022/02/19 03:27:28;;;;;;;20.90;5.50;;;3.60;99.90;;;;;;5074531;28;20024;-78
2022/02/19 03:29:54;;;;;;;;;;;3.70;99.90;;;;;;5073473;28;20035;-78
2022/02/19 03:32:19;;;;;;;11.13;4.22;;;3.80;99.90;;;;;;5074632;28;19911;-78
2022/02/19 03:34:45;;;;;;;;;;;3.90;99.90;;;;;;5074134;28;20043;-78
2022/02/19 03:37:10;;;;;;;16.38;4.93;;;4.10;99.90;;;;;;5073485;28;20749;-78
2022/02/19 03:39:36;;;;;;;13.20;3.95;;;4.20;99.90;;;;;;5074043;28;20370;-79
2022/02/19 03:42:02;;;;;;;10.02;3.92;;;4.40;99.90;;;;;;5074562;28;20397;-78
2022/02/19 03:44:28;;;;;;;13.07;3.95;;;4.50;99.90;;;;;;5073664;28;20457;-79
2022/02/19 03:46:54;;;;;;;11.15;4.07;;;4.70;99.90;;;;;;5078328;28;20528;-78
2022/02/19 03:49:19;;;;;;;;;;;4.80;99.90;;;;;;5079459;28;20029;-78
2022/02/19 03:51:45;;;;;;;11.45;3.47;;;5.00;99.90;;;;;;5080611;28;19908;-79
2022/02/19 03:54:11;;;;;;;;;;;5.00;99.90;;;;;;5090103;28;20084;-80
2022/02/19 03:56:38;;;;;;;14.13;4.75;;;5.10;99.90;;;;;;5087435;28;19908;-78
2022/02/19 03:59:04;;;;;;;12.65;4.90;;;5.20;99.90;;;;;;5076603;28;20036;-79
2022/02/19 04:01:30;;;;;;;14.35;4.63;;;5.20;99.90;;;;;;5074433;28;20031;-78
2022/02/19 04:03:58;;;;;;;;;;;5.30;99.90;;;;;;5074642;28;20032;-79
2022/02/19 04:06:25;;;;;;;14.63;3.97;;;5.30;99.90;;;;;;5073254;28;19916;-79
2022/02/19 04:08:51;;;;;;;12.38;4.18;;;5.40;99.90;;;;;;5074887;28;20024;-79
2022/02/19 04:11:18;;;;;;;;;;;5.40;99.90;;;;;;5074641;28;20028;-77
2022/02/19 04:13:44;;;;;;;13.95;4.95;;;5.40;99.90;;;;;;5071110;28;20373;-78
2022/02/19 04:16:09;;;;;;;;;;;5.40;99.90;;;;;;5071992;28;20032;-77
2022/02/19 04:18:35;;;;;;;12.23;4.80;;;5.30;99.90;;;;;;5071849;28;19915;-78
2022/02/19 04:21:01;;;;;;;14.43;4.75;;;5.30;99.90;;;;;;5071357;28;20036;-77
2022/02/19 04:23:26;;;;;;;;;;;5.20;99.90;;;;;;5075280;28;20099;-82
2022/02/19 04:25:52;;;;;;;14.07;4.43;;;5.20;99.90;;;;;;5075829;28;19910;-78
2022/02/19 04:28:21;;;;;;;12.82;5.13;;;5.20;99.90;;;;;;5076272;28;20033;-80
2022/02/19 04:30:47;;;;;;;10.73;4.80;;;5.30;99.90;;;;;;5076635;28;20040;-79
2022/02/19 04:33:12;;;;;;;8.73;4.32;;;5.20;99.90;;;;;;5077477;28;20048;-79
2022/02/19 04:35:39;;;;;;;12.40;4.95;;;5.30;99.90;;;;;;5076967;28;20105;-79
2022/02/19 04:38:05;;;;;;;14.43;4.88;;;5.30;99.90;;;;;;5072050;28;20060;-78
2022/02/19 04:40:31;;;;;;;12.77;4.60;;;5.30;99.90;;;;;;5073477;28;20040;-79
2022/02/19 04:42:56;;;;;;;16.85;5.20;;;5.20;99.90;;;;;;5071245;28;20033;-78
2022/02/19 04:45:22;;;;;;;;;;;5.30;99.90;;;;;;5074778;28;20017;-78
2022/02/19 04:47:48;;;;;;;11.07;4.70;;;5.20;99.90;;;;;;5076608;28;19904;-79
2022/02/19 04:50:14;;;;;;;12.07;4.20;;;5.20;99.90;;;;;;5076425;28;20051;-80
2022/02/19 04:52:43;;;;;;;15.45;4.25;;;5.10;99.90;;;;;;5079115;28;20036;-80
2022/02/19 04:55:09;;;;;;;18.67;5.78;;;5.00;99.90;;;;;;5077303;28;20082;-78
2022/02/19 04:57:36;;;;;;;19.23;6.10;;;5.00;99.90;;;;;;5074593;28;20029;-79
2022/02/19 05:00:06;;;;;;;15.10;5.97;;;5.00;99.90;;;;;;5077016;28;20043;-78
2022/02/19 05:02:32;;;;;;;17.75;6.85;;;4.90;99.90;;;;;;5075206;28;20033;-80
2022/02/19 05:04:57;;;;;;;19.95;6.75;;;4.80;99.90;;;;;;5081731;28;20123;-80
2022/02/19 05:07:23;;;;;;;17.05;6.70;;;4.80;99.90;;;;;;5084474;28;20039;-81
2022/02/19 05:09:49;;;;;;;21.33;7.32;;;4.90;99.90;;;;;;5086545;28;20030;-81
2022/02/19 05:12:14;;;;;;;22.10;7.35;;;4.90;99.90;;;;;;5082648;28;20039;-79
2022/02/19 05:14:43;;;;;;;;;;;4.90;99.90;;;;;;5082706;28;20028;-80
2022/02/19 05:17:09;;;;;;;21.60;7.95;;;4.90;99.90;;;;;;5086523;28;19888;-82
2022/02/19 05:19:35;;;;;;;17.00;8.48;;;5.00;99.90;;;;;;5088415;28;20059;-80
2022/02/19 05:22:01;;;;;;;;;;;5.00;99.90;;;;;;5091097;28;20063;-79
2022/02/19 05:24:26;;;;;;;31.02;11.73;;;5.00;99.90;;;;;;5081104;28;20019;-78
2022/02/19 05:26:52;;;;;;;28.48;13.88;;;5.10;99.90;;;;;;5072702;28;20024;-79
2022/02/19 05:29:17;;;;;;;;;;;5.10;99.90;;;;;;5075336;28;20050;-78
2022/02/19 05:31:43;;;;;;;25.75;13.13;;;5.20;99.90;;;;;;5073942;28;20432;-79
2022/02/19 05:34:09;;;;;;;26.10;11.88;;;5.20;99.90;;;;;;5075536;28;20074;-80
2022/02/19 05:36:34;;;;;;;22.20;11.07;;;5.20;99.90;;;;;;5080012;28;20070;-79
2022/02/19 05:39:02;;;;;;;22.70;9.75;;;5.30;99.90;;;;;;5084350;28;20079;-80
2022/02/19 05:41:29;;;;;;;22.17;10.25;;;5.20;99.90;;;;;;5079831;28;20043;-78
2022/02/19 05:43:54;;;;;;;26.75;9.88;;;5.30;99.90;;;;;;5080891;28;20031;-80
2022/02/19 05:46:20;;;;;;;28.20;11.25;;;5.30;99.90;;;;;;5075094;28;20037;-78
2022/02/19 05:48:46;;;;;;;;;;;5.30;99.90;;;;;;5076190;28;20033;-79
2022/02/19 05:51:11;;;;;;;19.50;8.90;;;5.30;99.90;;;;;;5084036;28;19964;-79
2022/02/19 05:53:37;;;;;;;37.85;12.43;;;5.30;99.90;;;;;;5080409;28;20052;-80
2022/02/19 05:56:03;;;;;;;25.73;10.98;;;5.30;99.90;;;;;;5078801;28;20029;-80
2022/02/19 05:58:29;;;;;;;32.80;12.73;;;5.30;99.90;;;;;;5080308;28;20020;-80
2022/02/19 06:00:54;;;;;;;;;;;5.40;99.90;;;;;;5075626;28;20066;-80
2022/02/19 06:03:20;;;;;;;28.58;11.55;;;5.30;99.90;;;;;;5077427;28;19919;-80
2022/02/19 06:05:46;;;;;;;;;;;5.30;99.90;;;;;;5080438;28;20496;-79
2022/02/19 06:08:12;;;;;;;35.83;13.68;;;5.30;99.90;;;;;;5077271;28;19911;-79
2022/02/19 06:10:37;;;;;;;30.92;14.05;;;5.30;99.90;;;;;;5080112;28;20024;-79
2022/02/19 06:13:03;;;;;;;36.03;15.07;;;5.30;99.90;;;;;;5074532;28;20390;-79
2022/02/19 06:15:29;;;;;;;33.67;13.55;;;5.40;99.90;;;;;;5075093;28;20025;-78
2022/02/19 06:17:54;;;;;;;29.23;13.60;;;5.40;99.90;;;;;;5071574;28;20060;-77
2022/02/19 06:20:20;;;;;;;;;;;5.40;99.90;;;;;;5074924;28;20527;-78
2022/02/19 06:22:46;;;;;;;28.10;11.20;;;5.50;99.90;;;;;;5073523;28;19920;-80
2022/02/19 06:25:11;;;;;;;32.47;13.27;;;5.50;99.90;;;;;;5076904;28;20032;-80
2022/02/19 06:27:43;;;;;;;31.92;14.32;;;5.50;99.90;;;;;;5080983;28;20029;-80
2022/02/19 06:30:09;;;;;;;25.50;13.00;;;5.60;99.90;;;;;;5085269;28;20025;-80
2022/02/19 06:32:35;;;;;;;21.85;11.27;;;5.60;99.90;;;;;;5090442;28;20029;-78
2022/02/19 06:35:01;;;;;;;16.45;6.75;;;5.80;99.90;;;;;;5088176;28;20033;-81
2022/02/19 06:37:26;;;;;;;;;;;5.90;99.90;;;;;;5081032;28;20422;-79
2022/02/19 06:39:52;;;;;;;11.68;4.40;;;6.10;99.90;;;;;;5079679;28;20376;-79
2022/02/19 06:42:18;;;;;;;;;;;6.20;99.90;;;;;;5077622;28;20043;-80
2022/02/19 06:44:43;;;;;;;5.75;1.60;;;6.50;99.90;;;;;;5080740;28;19912;-79
2022/02/19 06:47:09;;;;;;;;;;;6.70;99.90;;;;;;5078816;28;20028;-80
2022/02/19 06:49:35;;;;;;;2.47;0.50;;;7.10;99.90;;;;;;5077459;28;19908;-79
2022/02/19 06:52:00;;;;;;;;;;;7.40;95.30;;;;;;5080034;28;20048;-80
2022/02/19 06:54:26;;;;;;;4.07;0.40;;;7.70;93.80;;;;;;5079401;28;19993;-79
2022/02/19 06:56:55;;;;;;;2.85;0.50;;;8.00;92.50;;;;;;5080086;28;20166;-81
2022/02/19 06:59:20;;;;;;;4.05;0.40;;;8.30;88.90;;;;;;5079060;28;20033;-80
2022/02/19 07:01:46;;;;;;;1.27;0.40;;;8.60;84.20;;;;;;5075383;28;21009;-78
2022/02/19 07:04:15;;;;;;;2.22;0.52;;;8.80;87.20;;;;;;5077659;28;20032;-78
2022/02/19 07:06:41;;;;;;;1.10;0.50;;;8.90;85.60;;;;;;5078010;28;20031;-79
2022/02/19 07:09:07;;;;;;;1.92;0.50;;;9.00;82.00;;;;;;5077484;28;20041;-78
2022/02/19 07:11:33;;;;;;;2.50;0.50;;;9.20;78.00;;;;;;5078027;28;20537;-79
2022/02/19 07:13:58;;;;;;;;;;;9.30;76.40;;;;;;5078114;28;20088;-79
2022/02/19 07:16:24;;;;;;;1.63;0.50;;;9.40;77.60;;;;;;5078665;28;20300;-78
2022/02/19 07:18:49;;;;;;;1.95;0.70;;;9.50;74.00;;;;;;5078554;28;20480;-78
2022/02/19 07:21:15;;;;;;;1.08;0.40;;;9.70;71.70;;;;;;5079575;28;20039;-78
2022/02/19 07:23:41;;;;;;;;;;;9.80;70.70;;;;;;5077620;28;20536;-78
2022/02/19 07:26:06;;;;;;;5.10;0.95;;;9.90;69.00;;;;;;5077268;28;20418;-77
2022/02/19 07:28:32;;;;;;;1.42;0.38;;;10.00;69.30;;;;;;5077374;28;20032;-78
2022/02/19 07:30:58;;;;;;;2.10;0.55;;;10.20;67.70;;;;;;5076830;28;20424;-80
2022/02/19 07:33:23;;;;;;;;;;;10.10;65.80;;;;;;5076720;28;20024;-79
2022/02/19 07:35:49;;;;;;;1.55;0.40;;;10.20;64.80;;;;;;5076630;28;19908;-78
2022/02/19 07:38:15;;;;;;;1.13;0.30;;;10.20;64.50;;;;;;5073530;28;20037;-82
2022/02/19 07:40:40;;;;;;;2.22;0.47;;;10.30;64.80;;;;;;5070863;28;20111;-81
2022/02/19 07:43:06;;;;;;;;;;;10.30;63.70;;;;;;5069571;28;20103;-81
2022/02/19 07:45:32;;;;;;;3.42;0.40;;;10.30;63.40;;;;;;5069614;28;20501;-79
2022/02/19 07:47:57;;;;;;;;;;;10.40;62.80;;;;;;5069217;28;20439;-81
2022/02/19 07:58:35;;;;;;;1.83;0.63;;;10.60;59.50;;;;;;5069267;28;20027;-80
2022/02/19 08:01:02;;;;;;;;;;;10.60;59.10;;;;;;5069982;28;20029;-77
2022/02/19 08:03:29;;;;;;;2.92;0.40;;;10.90;56.30;;;;;;5071200;28;19911;-77
2022/02/19 08:05:55;;;;;;;3.97;0.50;;;11.00;55.00;;;;;;5069841;28;20078;-77
2022/02/19 08:08:22;;;;;;;1.92;0.50;;;11.10;53.50;;;;;;5068999;28;20539;-77
2022/02/19 08:10:48;;;;;;;2.97;0.40;;;11.10;54.00;;;;;;5069401;28;20028;-80
2022/02/19 08:13:16;;;;;;;3.83;0.30;;;11.10;55.10;;;;;;5070492;28;20032;-81
2022/02/19 08:15:43;;;;;;;1.65;0.40;;;11.10;55.30;;;;;;5075971;28;20515;-77
2022/02/19 08:18:10;;;;;;;4.40;0.60;;;11.10;54.60;;;;;;5073030;28;20032;-78
2022/02/19 08:20:38;;;;;;;2.60;0.40;;;11.00;55.00;;;;;;5077870;28;20028;-79
2022/02/19 08:23:05;;;;;;;1.38;0.30;;;10.90;55.60;;;;;;5082924;28;20052;-79
2022/02/19 08:25:31;;;;;;;2.10;0.30;;;10.80;56.10;;;;;;5081806;28;20021;-78
2022/02/19 08:27:57;;;;;;;;;;;10.70;56.80;;;;;;5094989;28;20036;-79
2022/02/19 08:30:23;;;;;;;9.27;1.13;;;10.70;56.90;;;;;;5098829;28;19888;-78
2022/02/19 08:32:49;;;;;;;5.60;0.50;;;10.80;56.30;;;;;;5097663;28;20028;-78
2022/02/19 08:35:15;;;;;;;;;;;10.70;56.00;;;;;;5099013;28;20020;-79
2022/02/19 08:37:40;;;;;;;3.60;0.40;;;10.60;56.20;;;;;;5097664;28;19986;-78
2022/02/19 08:40:09;;;;;;;2.10;0.43;;;10.50;56.60;;;;;;5090074;28;20032;-77
2022/02/19 08:42:35;;;;;;;2.22;0.70;;;10.50;56.80;;;;;;5076073;28;20534;-78
2022/02/19 08:45:02;;;;;;;8.63;1.98;;;10.50;56.90;;;;;;5082332;28;20032;-78
2022/02/19 08:47:28;;;;;;;2.65;0.70;;;10.60;56.80;;;;;;5076732;28;20024;-79
2022/02/19 08:49:53;;;;;;;;;;;10.50;57.40;;;;;;5084483;28;20032;-78
2022/02/19 08:52:19;;;;;;;3.22;0.60;;;10.50;57.70;;;;;;5083157;28;19911;-78
2022/02/19 08:54:44;;;;;;;2.17;0.45;;;10.50;56.80;;;;;;5082198;28;20017;-78
2022/02/19 08:57:10;;;;;;;7.00;1.20;;;10.50;57.00;;;;;;5088527;28;20096;-78
2022/02/19 08:59:35;;;;;;;;;;;10.60;57.10;;;;;;5090959;28;20047;-78
2022/02/19 09:02:01;;;;;;;6.38;1.40;;;10.70;56.40;;;;;;5091691;28;19963;-81
2022/02/19 09:04:28;;;;;;;;;;;10.80;55.00;;;;;;5091024;28;20037;-79
2022/02/19 09:06:53;;;;;;;3.75;0.50;;;10.80;54.90;;;;;;5090251;28;19910;-78
2022/02/19 09:09:19;;;;;;;;;;;10.80;55.10;;;;;;5093872;28;20025;-78
2022/02/19 09:11:45;;;;;;;6.07;0.60;;;11.00;54.10;;;;;;5095054;28;19905;-78
2022/02/19 09:14:10;;;;;;;3.03;0.60;;;11.10;54.00;;;;;;5091850;28;20025;-78
2022/02/19 09:16:37;;;;;;;;;;;11.20;53.80;;;;;;5092072;28;20025;-79
2022/02/19 09:19:05;;;;;;;3.58;0.50;;;11.20;53.90;;;;;;5093021;28;19904;-79
2022/02/19 09:21:31;;;;;;;5.70;0.75;;;11.10;54.40;;;;;;5088365;28;20028;-77
2022/02/19 09:23:57;;;;;;;4.35;0.95;;;11.10;54.50;;;;;;5086917;28;20025;-78
2022/02/19 09:26:23;;;;;;;7.47;2.22;;;11.10;54.30;;;;;;5089891;28;20039;-78
2022/02/19 09:28:49;;;;;;;;;;;11.30;53.10;;;;;;5089038;28;20028;-78
2022/02/19 09:31:15;;;;;;;9.38;2.63;;;11.20;53.60;;;;;;5090543;28;19936;-78
2022/02/19 09:33:41;;;;;;;;;;;11.20;54.50;;;;;;5092011;28;20096;-78
2022/02/19 09:36:08;;;;;;;7.03;0.60;;;11.20;54.70;;;;;;5090991;28;19935;-78
2022/02/19 09:38:34;;;;;;;6.05;0.52;;;11.50;53.30;;;;;;5086838;28;20017;-80
2022/02/19 09:41:01;;;;;;;;;;;11.60;53.00;;;;;;5075031;28;20028;-81
2022/02/19 09:43:27;;;;;;;;;;;11.70;52.50;;;;;;5082185;28;19912;-80
2022/02/19 09:45:53;;;;;;;4.40;0.70;;;11.80;52.00;;;;;;5074685;28;19946;-81
2022/02/19 09:48:21;;;;;;;;;;;11.70;52.10;;;;;;5082299;28;20076;-78
2022/02/19 09:50:51;;;;;;;5.50;0.70;;;11.70;51.70;;;;;;5086126;28;19935;-79
2022/02/19 09:53:17;;;;;;;4.47;0.90;;;11.60;52.20;;;;;;5077451;28;20051;-78
2022/02/19 09:55:43;;;;;;;;;;;11.70;52.30;;;;;;5059833;28;20485;-81
2022/02/19 09:58:08;;;;;;;2.53;0.40;;;11.50;52.70;;;;;;5054975;28;19908;-78
2022/02/19 10:00:34;;;;;;;;;;;11.40;52.30;;;;;;5065323;28;20079;-81
2022/02/19 10:03:00;;;;;;;4.43;0.63;;;11.40;52.50;;;;;;5062348;28;20073;-76
2022/02/19 10:05:28;;;;;;;;;;;11.30;53.60;;;;;;5063836;28;20033;-78
2022/02/19 10:08:08;;;;;;;3.38;0.60;;;11.00;53.40;;;;;;5064068;28;19916;-78
2022/02/19 10:10:40;;;;;;;2.38;0.50;;;11.10;53.30;;;;;;5055757;28;20024;-78
2022/02/19 10:13:06;;;;;;;5.32;0.70;;;11.00;53.90;;;;;;5062282;28;20029;-78
2022/02/19 10:15:43;;;;;;;;;;;10.90;54.30;;;;;;5057971;28;20025;-78
2022/02/19 10:18:26;;;;;;;6.10;0.60;;;11.00;54.10;;;;;;5056322;28;19909;-78
2022/02/19 10:21:07;;;;;;;2.60;0.55;;;11.00;54.10;;;;;;5053205;28;20271;-77
2022/02/19 10:23:33;;;;;;;2.33;0.40;;;11.00;54.40;;;;;;5057274;28;20513;-77
2022/02/19 10:26:00;;;;;;;;;;;11.00;55.00;;;;;;5053540;28;20074;-77
2022/02/19 10:28:25;;;;;;;3.90;0.50;;;11.00;55.20;;;;;;5056887;28;19908;-79
2022/02/19 10:30:53;;;;;;;;;;;10.90;55.30;;;;;;5048988;28;20494;-78
2022/02/19 10:33:26;;;;;;;3.10;0.40;;;11.10;54.50;;;;;;5049584;28;19950;-78
2022/02/19 10:35:53;;;;;;;3.53;0.50;;;11.20;55.00;;;;;;5053367;28;20029;-79
2022/02/19 10:38:20;;;;;;;3.10;0.60;;;11.30;54.90;;;;;;5052457;28;20397;-79
2022/02/19 10:40:52;;;;;;;3.33;0.70;;;11.30;55.10;;;;;;5063544;28;20509;-82
2022/02/19 10:43:31;;;;;;;4.47;0.82;;;11.40;54.80;;;;;;5071235;28;20033;-81
2022/02/19 10:46:02;;;;;;;3.83;0.70;;;11.40;54.10;;;;;;5074446;28;20013;-81
2022/02/19 10:48:33;;;;;;;2.70;0.50;;;11.50;54.10;;;;;;5070003;28;20448;-80
2022/02/19 10:51:15;;;;;;;3.05;0.65;;;11.50;54.40;;;;;;5070063;28;20389;-80
2022/02/19 10:53:49;;;;;;;5.32;0.80;;;11.60;53.80;;;;;;5073758;28;20371;-81
2022/02/19 10:56:20;;;;;;;1.92;0.47;;;11.60;52.90;;;;;;5071778;28;20024;-80
2022/02/19 10:58:59;;;;;;;7.13;1.00;;;11.70;52.70;;;;;;5072863;28;20044;-80
2022/02/19 11:01:25;;;;;;;4.25;1.40;;;11.80;52.80;;;;;;5070899;28;20033;-80
2022/02/19 11:03:54;;;;;;;;;;;11.60;53.40;;;;;;5074197;28;20021;-80
2022/02/19 11:06:26;;;;;;;6.00;1.65;;;11.60;52.20;;;;;;5065822;28;19951;-80
2022/02/19 11:08:52;;;;;;;6.10;1.98;;;11.60;52.90;;;;;;5059994;28;20033;-79
2022/02/19 11:11:18;;;;;;;8.63;4.45;;;11.70;53.10;;;;;;5067532;28;20021;-80
2022/02/19 11:13:45;;;;;;;8.63;3.65;;;11.80;52.30;;;;;;5062577;28;20029;-80
2022/02/19 11:16:11;;;;;;;6.43;2.70;;;11.80;51.90;;;;;;5072074;28;20488;-81
2022/02/19 11:18:37;;;;;;;;;;;11.90;51.20;;;;;;5073188;28;20081;-80
2022/02/19 11:21:03;;;;;;;9.90;1.73;;;12.00;50.60;;;;;;5070848;28;20304;-80
2022/02/19 11:23:31;;;;;;;3.38;0.57;;;12.10;49.90;;;;;;5063146;28;20045;-80
2022/02/19 11:25:58;;;;;;;5.05;0.93;;;12.10;49.50;;;;;;5068189;28;20029;-80
2022/02/19 11:28:27;;;;;;;5.28;1.65;;;12.00;50.10;;;;;;5070241;28;20024;-79
2022/02/19 11:30:55;;;;;;;4.32;0.82;;;12.10;50.00;;;;;;5069495;28;20057;-81
2022/02/19 11:33:22;;;;;;;8.35;0.82;;;12.10;49.50;;;;;;5063911;28;20082;-81
2022/02/19 11:35:48;;;;;;;5.07;0.60;;;12.10;49.00;;;;;;5065695;28;20048;-80
2022/02/19 11:38:28;;;;;;;5.80;0.70;;;12.30;48.40;;;;;;5064043;28;20501;-82
2022/02/19 11:40:58;;;;;;;1.80;0.40;;;12.30;48.10;;;;;;5051865;28;20501;-84
2022/02/19 11:43:39;;;;;;;4.75;1.05;;;12.30;47.70;;;;;;5050280;28;20048;-84
2022/02/19 11:46:31;;;;;;;5.65;0.68;;;12.40;47.50;;;;;;5053893;28;20032;-84
2022/02/19 11:48:57;;;;;;;5.97;1.08;;;12.30;47.90;;;;;;5052243;28;20068;-81
2022/02/19 11:51:24;;;;;;;;;;;12.40;47.40;;;;;;5075809;28;20017;-80
2022/02/19 11:54:06;;;;;;;3.72;0.70;;;12.30;48.10;;;;;;5075419;28;19905;-80
2022/02/19 11:56:37;;;;;;;3.85;0.70;;;12.20;48.20;;;;;;5073093;28;20029;-80
2022/02/19 11:59:09;;;;;;;2.47;0.57;;;12.10;48.20;;;;;;5075696;28;20032;-81
2022/02/19 12:01:35;;;;;;;4.22;0.75;;;12.10;49.20;;;;;;5076427;28;20025;-80
2022/02/19 12:04:10;;;;;;;2.92;0.52;;;12.10;48.40;;;;;;5076693;28;20025;-80
2022/02/19 12:06:37;;;;;;;2.75;0.57;;;12.10;48.10;;;;;;5075241;28;20393;-81
2022/02/19 12:09:18;;;;;;;5.22;0.75;;;12.00;48.50;;;;;;5072359;28;20021;-80
2022/02/19 12:12:07;;;;;;;3.63;0.60;;;11.80;48.70;;;;;;5074922;28;20029;-80
2022/02/19 12:14:42;;;;;;;9.85;1.73;;;11.70;48.70;;;;;;5075137;28;20029;-81
2022/02/19 12:17:13;;;;;;;2.93;0.63;;;11.70;49.50;;;;;;5075545;28;20016;-80
2022/02/19 12:19:51;;;;;;;6.57;0.75;;;11.70;50.20;;;;;;5073867;28;20025;-79
2022/02/19 12:22:42;;;;;;;9.82;0.63;;;11.70;49.90;;;;;;5076718;28;20052;-80
2022/02/19 12:25:10;;;;;;;7.30;0.50;;;11.80;49.30;;;;;;5077036;28;20035;-81
2022/02/19 12:27:37;;;;;;;2.08;0.60;;;11.90;48.70;;;;;;5075789;28;20033;-80
2022/02/19 12:30:30;;;;;;;6.65;0.60;;;11.80;48.60;;;;;;5074895;28;20044;-80
2022/02/19 12:32:58;;;;;;;5.85;0.63;;;11.70;49.70;;;;;;5071319;28;20063;-80
2022/02/19 12:35:36;;;;;;;4.10;0.70;;;11.80;49.50;;;;;;5076421;28;20029;-80
2022/02/19 12:38:02;;;;;;;2.67;0.52;;;11.80;49.20;;;;;;5077325;28;20021;-80
2022/02/19 12:40:29;;;;;;;4.18;0.63;;;11.90;46.40;;;;;;5077606;28;20028;-80
2022/02/19 12:42:55;;;;;;;1.38;0.40;;;12.00;46.80;;;;;;5075666;28;20116;-80
2022/02/19 12:45:21;;;;;;;;;;;11.90;47.80;;;;;;5077620;28;20010;-80
2022/02/19 12:47:47;;;;;;;4.20;0.40;;;12.10;45.80;;;;;;5074614;28;20405;-80
2022/02/19 12:50:14;;;;;;;;;;;12.00;46.20;;;;;;5077222;28;20033;-80
2022/02/19 12:52:39;;;;;;;2.42;0.50;;;12.10;44.90;;;;;;5074444;28;19905;-80
2022/02/19 12:55:11;;;;;;;4.05;0.88;;;12.10;45.70;;;;;;5075574;28;20056;-80
2022/02/19 12:57:37;;;;;;;3.17;0.60;;;12.00;45.70;;;;;;5075169;28;20029;-80
2022/02/19 13:00:04;;;;;;;;;;;12.00;46.10;;;;;;5076048;28;20055;-80
2022/02/19 13:02:30;;;;;;;;;;;11.90;46.60;;;;;;5071036;28;20376;-81
2022/02/19 13:04:59;;;;;;;5.07;0.55;;;11.70;47.10;;;;;;5074448;28;19912;-80
2022/02/19 13:07:26;;;;;;;2.78;0.55;;;11.60;47.10;;;;;;5074605;28;20044;-80
2022/02/19 13:09:55;;;;;;;5.95;0.80;;;11.60;47.50;;;;;;5076015;28;20032;-79
2022/02/19 13:12:40;;;;;;;4.18;0.68;;;11.60;48.00;;;;;;5076135;28;20091;-80